Bewelcome, Mississippi
Current Conditions -  °F | °C
As of 3:53 PM on Tuesday 25 Nov 2014 (Local Time) from KMCB Reporting Station
Broken Clouds Broken Clouds  
Wind Chill: 50°   Ceiling: 11000
Heat Index: 50°   Visibility: 10mi
Dew Point: 28°   Wind: 10mph
Humidity: 43%   Direction: 350°N
Pressure: 30.17"   Gusts: NA
Location:  31.1819°N, 90.9008°W
Report Text: KMCB 252153Z AUTO 35009KT 10SM BKN110 10/M02 A3017 RMK AO2 SLP215 T01001022
Loading
Personal Weather Stations






























Interactive Weather Map New forecast layout! Learn more

10-Day Weather Forecast

Advertisements
Track Severe Weather on mobile